Time;durP1;ratioP1;P1;durP2;ratioP2;P2;SDS_P1;SDS_P2;PMS_P1;PMS_P2;Temp;Humidity;BMP_temperature;BMP_pressure;BME280_temperature;BME280_humidity;BME280_pressure;Samples;Min_cycle;Max_cycle;Signal;HPM_P1;HPM_P2
2023/06/29 00:01:07;;;;;;;16.50;12.38;;;;;;;20.87;99.74;101496.06;5120634;28;20041;-63
2023/06/29 00:03:35;;;;;;;17.80;12.95;;;;;;;20.88;99.54;101492.16;5137893;27;20050;-62
2023/06/29 00:06:03;;;;;;;17.23;11.05;;;;;;;20.88;99.34;101492.16;5108742;28;20048;-61
2023/06/29 00:08:35;;;;;;;18.50;11.70;;;;;;;20.88;99.59;101492.16;5112550;28;20055;-62
2023/06/29 00:11:04;;;;;;;20.45;13.85;;;;;;;20.88;99.92;101494.91;5118976;28;20490;-62
2023/06/29 00:13:32;;;;;;;19.15;13.95;;;;;;;20.88;99.93;101497.69;5134132;27;20471;-61
2023/06/29 00:16:00;;;;;;;17.02;11.27;;;;;;;20.87;99.65;101490.53;5136410;27;20047;-64
2023/06/29 00:18:28;;;;;;;18.20;12.32;;;;;;;20.87;100.00;101488.56;5112168;27;20496;-62
2023/06/29 00:20:57;;;;;;;16.10;11.55;;;;;;;20.88;99.64;101486.63;5117210;28;20047;-62
2023/06/29 00:23:24;;;;;;;16.48;12.05;;;;;;;20.87;100.00;101485.00;5116802;28;20093;-62
2023/06/29 00:25:56;;;;;;;17.88;12.85;;;;;;;20.87;100.00;101485.00;5115538;27;20058;-63
2023/06/29 00:28:24;;;;;;;17.52;12.27;;;;;;;20.85;100.00;101477.84;5116598;28;20441;-62
2023/06/29 00:30:52;;;;;;;21.25;15.10;;;;;;;20.84;100.00;101476.19;5096185;28;20040;-62
2023/06/29 00:33:19;;;;;;;19.70;13.15;;;;;;;20.84;100.00;101476.19;5096254;28;20055;-62
2023/06/29 00:35:47;;;;;;;21.13;13.57;;;;;;;20.83;100.00;101471.78;5096154;28;20063;-62
2023/06/29 00:38:15;;;;;;;18.98;13.60;;;;;;;20.84;100.00;101476.19;5115561;27;20131;-61
2023/06/29 00:40:43;;;;;;;24.25;17.20;;;;;;;20.82;100.00;101470.16;5115588;28;20050;-62
2023/06/29 00:43:10;;;;;;;23.10;16.45;;;;;;;20.83;100.00;101471.78;5113894;27;20400;-61
2023/06/29 00:45:38;;;;;;;23.58;15.77;;;;;;;20.82;100.00;101472.91;5118757;27;20051;-62
2023/06/29 00:48:07;;;;;;;22.58;15.65;;;;;;;20.81;100.00;101465.75;5120791;27;20119;-63
2023/06/29 00:50:35;;;;;;;25.75;17.55;;;;;;;20.79;100.00;101462.50;5094263;28;20059;-62
2023/06/29 00:53:03;;;;;;;24.52;16.73;;;;;;;20.79;100.00;101465.25;5095486;28;20043;-63
2023/06/29 00:55:31;;;;;;;25.75;17.13;;;;;;;20.79;100.00;101458.91;5097116;28;20442;-61
2023/06/29 00:57:59;;;;;;;22.38;15.20;;;;;;;20.79;100.00;101461.69;5108962;27;20035;-62
2023/06/29 01:00:26;;;;;;;24.27;15.82;;;;;;;20.78;100.00;101455.34;5115883;28;20418;-62
2023/06/29 01:02:54;;;;;;;23.38;16.45;;;;;;;20.78;100.00;101455.34;5116572;28;20050;-60
2023/06/29 01:05:24;;;;;;;24.02;15.48;;;;;;;20.79;100.00;101450.59;5116612;28;20058;-61
2023/06/29 01:08:02;;;;;;;22.35;15.75;;;;;;;20.79;100.00;101450.59;5113366;27;20389;-62
2023/06/29 01:10:30;;;;;;;;;;;;;;;20.78;100.00;101451.72;5115288;27;20043;-63
2023/06/29 01:12:59;;;;;;;18.98;14.15;;;;;;;20.79;100.00;101453.38;5078247;28;19935;-62
2023/06/29 01:15:27;;;;;;;18.58;13.75;;;;;;;20.78;100.00;101447.03;5094475;28;20057;-61
2023/06/29 01:17:56;;;;;;;24.85;15.10;;;;;;;20.78;100.00;101444.25;5077657;28;20056;-62
2023/06/29 01:20:26;;;;;;;28.25;17.55;;;;;;;20.78;100.00;101444.25;5113777;27;20513;-63
2023/06/29 01:23:14;;;;;;;24.58;18.98;;;;;;;20.77;100.00;101439.84;5116401;28;20040;-63
2023/06/29 01:25:42;;;;;;;25.98;19.60;;;;;;;20.75;100.00;101442.09;5115561;27;20198;-60
2023/06/29 01:28:11;;;;;;;26.65;19.48;;;;;;;20.73;100.00;101436.06;5113301;28;20058;-60
2023/06/29 01:30:48;;;;;;;27.00;19.80;;;;;;;20.71;100.00;101437.53;5115618;27;20044;-62
2023/06/29 01:33:22;;;;;;;27.95;19.88;;;;;;;20.68;100.00;101439.00;5114126;28;20418;-62
2023/06/29 01:35:53;;;;;;;30.02;22.35;;;;;;;20.64;100.00;101441.59;5098043;28;20043;-62
2023/06/29 01:38:26;;;;;;;29.10;21.17;;;;;;;20.61;100.00;101441.41;5114583;28;20384;-64
2023/06/29 01:40:57;;;;;;;30.73;21.95;;;;;;;20.57;100.00;101441.25;5117392;27;20059;-62
2023/06/29 01:43:28;;;;;;;29.13;20.40;;;;;;;20.55;100.00;101439.91;5115581;28;20043;-62
2023/06/29 01:45:56;;;;;;;31.88;21.48;;;;;;;20.53;100.00;101437.44;5112800;28;20051;-63
2023/06/29 01:48:24;;;;;;;26.15;20.80;;;;;;;20.53;100.00;101433.88;5098871;28;20039;-63
2023/06/29 01:50:52;;;;;;;29.40;21.60;;;;;;;20.53;100.00;101436.66;5116224;27;20092;-62
2023/06/29 01:53:20;;;;;;;29.98;21.30;;;;;;;20.52;100.00;101435.03;5115378;28;20544;-62
2023/06/29 01:55:48;;;;;;;30.50;20.30;;;;;;;20.50;100.00;101429.78;5115519;28;20468;-63
2023/06/29 01:58:16;;;;;;;29.38;21.67;;;;;;;20.49;100.00;101430.09;5112121;28;20039;-63
2023/06/29 02:00:43;;;;;;;30.35;22.02;;;;;;;20.48;100.00;101423.75;5115008;27;20059;-64
2023/06/29 02:03:12;;;;;;;27.15;20.15;;;;;;;20.48;100.00;101428.50;5114590;28;20051;-61
2023/06/29 02:05:40;;;;;;;30.88;21.75;;;;;;;20.48;100.00;101423.75;5127120;27;20394;-62
2023/06/29 02:08:08;;;;;;;27.15;19.58;;;;;;;20.50;100.00;101424.25;5114030;27;20051;-62
2023/06/29 02:10:36;;;;;;;28.00;20.10;;;;;;;20.52;100.00;101418.41;5113522;28;20398;-61
2023/06/29 02:13:04;;;;;;;30.50;21.83;;;;;;;20.53;100.00;101418.06;5093291;28;20043;-62
2023/06/29 02:15:32;;;;;;;30.58;21.52;;;;;;;20.56;100.00;101419.41;5084333;28;20048;-62
2023/06/29 02:18:05;;;;;;;31.50;21.00;;;;;;;20.55;100.00;101418.59;5093693;28;20100;-63
2023/06/29 02:20:33;;;;;;;29.30;20.58;;;;;;;20.56;100.00;101419.41;5110942;28;20096;-62
2023/06/29 02:23:01;;;;;;;27.42;20.33;;;;;;;;;;5109907;27;20380;-61
2023/06/29 02:25:29;;;;;;;30.50;21.13;;;;;;;20.56;100.00;101408.34;5115090;28;20092;-62
2023/06/29 02:27:57;;;;;;;27.08;20.75;;;;;;;20.56;100.00;101402.81;5114871;28;20044;-62
2023/06/29 02:30:24;;;;;;;27.52;20.67;;;;;;;20.57;100.00;101410.78;5114982;28;20047;-63
2023/06/29 02:32:52;;;;;;;26.75;18.15;;;;;;;20.58;100.00;101411.59;5113675;27;20047;-61
2023/06/29 02:35:20;;;;;;;29.17;21.38;;;;;;;20.58;100.00;101412.41;5111238;28;20043;-61
2023/06/29 02:37:48;;;;;;;31.63;22.08;;;;;;;20.57;100.00;101410.78;5103851;28;20050;-61
2023/06/29 02:40:17;;;;;;;29.95;21.13;;;;;;;20.55;100.00;101396.44;5092897;28;20044;-61
2023/06/29 02:42:45;;;;;;;32.45;22.42;;;;;;;20.53;100.00;101390.38;5079155;27;20409;-61
2023/06/29 02:45:13;;;;;;;29.00;20.70;;;;;;;20.53;100.00;101395.13;5113765;27;20552;-63
2023/06/29 02:47:41;;;;;;;30.00;21.48;;;;;;;20.50;100.00;101395.78;5111534;28;20044;-63
2023/06/29 02:50:09;;;;;;;33.38;20.83;;;;;;;20.46;100.00;101392.00;5113014;28;20042;-63
2023/06/29 02:52:44;;;;;;;30.80;22.47;;;;;;;20.44;100.00;101389.53;5113783;28;20047;-63
2023/06/29 02:55:12;;;;;;;35.28;23.38;;;;;;;20.41;100.00;101384.66;5114158;27;20104;-63
2023/06/29 02:57:40;;;;;;;32.15;23.55;;;;;;;20.40;100.00;101389.38;5113186;28;20048;-61
2023/06/29 03:00:09;;;;;;;30.05;21.80;;;;;;;20.39;100.00;101386.94;5110854;28;20055;-62
2023/06/29 03:02:37;;;;;;;28.67;22.45;;;;;;;20.38;100.00;101380.59;5092653;28;20044;-62
2023/06/29 03:05:08;;;;;;;30.48;21.90;;;;;;;20.41;100.00;101390.19;5107671;27;20503;-63
2023/06/29 03:07:36;;;;;;;31.63;22.35;;;;;;;20.43;100.00;101385.97;5096275;28;20058;-63
2023/06/29 03:10:04;;;;;;;30.75;22.02;;;;;;;20.45;100.00;101379.31;5114230;28;20051;-63
2023/06/29 03:12:32;;;;;;;29.00;21.52;;;;;;;20.47;100.00;101388.09;5111542;28;20051;-62
2023/06/29 03:15:00;;;;;;;29.40;21.73;;;;;;;20.48;100.00;101385.00;5113090;27;20058;-62
2023/06/29 03:17:31;;;;;;;33.05;22.55;;;;;;;20.47;100.00;101385.31;5115179;28;20114;-61
2023/06/29 03:19:59;;;;;;;28.30;21.65;;;;;;;20.45;100.00;101385.66;5113976;28;20044;-62
2023/06/29 03:22:27;;;;;;;29.20;22.33;;;;;;;20.45;100.00;101387.63;5112817;28;20052;-62
2023/06/29 03:24:55;;;;;;;31.88;22.38;;;;;;;20.45;100.00;101382.06;5112043;28;20100;-63
2023/06/29 03:27:23;;;;;;;29.20;19.65;;;;;;;20.46;100.00;101380.94;5098098;28;20044;-61
2023/06/29 03:29:53;;;;;;;31.40;22.92;;;;;;;20.43;100.00;101377.66;5093084;28;20048;-64
2023/06/29 03:32:20;;;;;;;27.85;19.35;;;;;;;20.42;100.00;101373.28;5093886;28;20040;-61
2023/06/29 03:34:48;;;;;;;27.48;20.70;;;;;;;20.43;100.00;101377.66;5093833;28;20484;-61
2023/06/29 03:37:16;;;;;;;29.95;22.40;;;;;;;20.38;100.00;101369.50;5101876;28;20096;-61
2023/06/29 03:39:44;;;;;;;35.08;23.48;;;;;;;20.37;100.00;101372.59;5114134;28;20045;-62
2023/06/29 03:42:12;;;;;;;31.27;23.13;;;;;;;20.37;100.00;101370.66;5113799;28;20043;-61
2023/06/29 03:44:40;;;;;;;28.75;21.67;;;;;;;20.35;100.00;101361.84;5111826;28;20042;-62
2023/06/29 03:47:08;;;;;;;32.22;23.45;;;;;;;20.35;100.00;101367.41;5113242;28;20060;-62
2023/06/29 03:49:35;;;;;;;32.67;21.33;;;;;;;20.32;100.00;101367.19;5112587;28;20389;-61
2023/06/29 03:52:03;;;;;;;32.35;22.25;;;;;;;20.30;100.00;101362.00;5118123;28;20047;-63
2023/06/29 03:54:31;;;;;;;31.63;21.52;;;;;;;20.31;100.00;101363.63;5117585;28;20065;-62
2023/06/29 03:56:59;;;;;;;29.00;19.13;;;;;;;20.33;100.00;101361.34;5117825;28;20039;-62
2023/06/29 03:59:27;;;;;;;28.20;19.40;;;;;;;20.35;100.00;101358.28;5117531;28;20065;-62
2023/06/29 04:01:55;;;;;;;26.33;19.80;;;;;;;20.37;100.00;101356.81;5116042;28;20044;-63
2023/06/29 04:04:23;;;;;;;25.02;17.85;;;;;;;20.39;100.00;101360.06;5117687;28;20379;-61
2023/06/29 04:06:51;;;;;;;27.20;19.42;;;;;;;20.41;100.00;101356.97;5117344;27;20051;-63
2023/06/29 04:09:18;;;;;;;22.75;16.92;;;;;;;20.40;100.00;101356.16;5117498;28;20044;-63
2023/06/29 04:11:46;;;;;;;29.48;20.90;;;;;;;20.42;100.00;101359.44;5116727;28;20092;-62
2023/06/29 04:14:14;;;;;;;26.45;19.02;;;;;;;20.42;100.00;101356.66;5117156;28;20047;-63
2023/06/29 04:16:42;;;;;;;24.00;15.95;;;;;;;20.45;100.00;101355.22;5106992;28;20123;-61
2023/06/29 04:19:10;;;;;;;25.60;18.05;;;;;;;20.46;100.00;101362.34;5120213;27;20075;-64
2023/06/29 04:21:37;;;;;;;21.92;16.13;;;;;;;20.46;100.00;101348.53;5110553;28;20579;-62
2023/06/29 04:24:06;;;;;;;22.75;16.77;;;;;;;20.47;100.00;101354.88;5114751;28;20509;-62
2023/06/29 04:26:34;;;;;;;27.02;19.85;;;;;;;20.46;100.00;101347.72;5126028;28;20099;-61
2023/06/29 04:29:06;;;;;;;22.75;17.05;;;;;;;20.46;100.00;101351.28;5119083;27;20068;-61
2023/06/29 04:31:34;;;;;;;28.00;19.77;;;;;;;20.46;100.00;101348.53;5111683;28;20068;-62
2023/06/29 04:34:02;;;;;;;26.63;17.75;;;;;;;20.47;100.00;101341.88;5098482;28;20058;-64
2023/06/29 04:36:30;;;;;;;23.75;16.33;;;;;;;20.50;100.00;101343.16;5096861;28;20058;-63
2023/06/29 04:38:58;;;;;;;24.63;19.17;;;;;;;20.51;100.00;101344.78;5107494;28;20118;-63
2023/06/29 04:41:32;;;;;;;26.27;18.25;;;;;;;20.51;100.00;101344.78;5114932;28;20051;-64
2023/06/29 04:44:01;;;;;;;29.60;20.35;;;;;;;20.52;100.00;101340.91;5116540;28;20407;-64
2023/06/29 04:46:30;;;;;;;28.75;20.02;;;;;;;20.52;100.00;101343.66;5098853;28;20062;-62
2023/06/29 04:49:04;;;;;;;21.00;16.75;;;;;;;20.52;100.00;101338.94;5116172;27;20047;-63
2023/06/29 04:51:39;;;;;;;23.58;15.52;;;;;;;20.54;100.00;101330.28;5116007;28;20043;-62
2023/06/29 04:54:06;;;;;;;22.88;16.20;;;;;;;20.56;100.00;101328.06;5104163;27;20050;-62
2023/06/29 04:56:35;;;;;;;23.17;16.42;;;;;;;20.57;100.00;101333.28;5099035;28;20143;-63
2023/06/29 04:59:02;;;;;;;24.08;17.45;;;;;;;20.56;100.00;101333.59;5095900;28;20040;-63
2023/06/29 05:01:30;;;;;;;30.48;21.48;;;;;;;20.56;100.00;101328.06;5095066;28;20048;-61
2023/06/29 05:03:58;;;;;;;28.65;18.80;;;;;;;20.55;100.00;101323.63;5105200;27;20047;-62
2023/06/29 05:06:29;;;;;;;22.42;16.83;;;;;;;20.55;100.00;101329.16;5099536;28;20050;-63
2023/06/29 05:08:57;;;;;;;23.42;17.88;;;;;;;20.57;100.00;101330.50;5095489;28;20399;-63
2023/06/29 05:11:25;;;;;;;25.98;17.35;;;;;;;20.55;100.00;101329.16;5095708;28;20096;-63
2023/06/29 05:13:52;;;;;;;23.65;17.65;;;;;;;20.55;100.00;101327.25;5098641;27;20093;-62
2023/06/29 05:16:20;;;;;;;25.13;17.67;;;;;;;;;;5118423;27;20055;-63
2023/06/29 05:18:48;;;;;;;25.15;17.67;;;;;;;20.57;100.00;101330.50;5108332;27;20051;-63
2023/06/29 05:21:16;;;;;;;25.92;18.10;;;;;;;20.60;100.00;101331.81;5095447;28;20048;-64
2023/06/29 05:23:43;;;;;;;28.85;19.90;;;;;;;20.57;100.00;101332.47;5094340;28;20089;-63
2023/06/29 05:26:11;;;;;;;26.50;18.23;;;;;;;;;;5114697;27;20052;-63
2023/06/29 05:28:39;;;;;;;29.77;16.90;;;;;;;20.59;100.00;101330.19;5115050;28;20398;-64
2023/06/29 05:31:13;;;;;;;26.90;18.63;;;;;;;20.59;100.00;101330.19;5113587;28;20058;-63
2023/06/29 05:33:43;;;;;;;27.50;16.90;;;;;;;20.60;100.00;101324.31;5116110;28;20054;-62
2023/06/29 05:36:11;;;;;;;25.63;17.23;;;;;;;20.63;100.00;101329.19;5116684;27;20051;-61
2023/06/29 05:38:38;;;;;;;26.08;16.95;;;;;;;20.66;100.00;101325.00;5097973;28;20040;-61
2023/06/29 05:41:06;;;;;;;23.10;16.20;;;;;;;20.69;100.00;101324.34;5095300;28;20104;-63
2023/06/29 05:43:34;;;;;;;27.98;19.73;;;;;;;20.73;100.00;101324.47;5094786;28;20048;-62
2023/06/29 05:46:02;;;;;;;25.40;16.70;;;;;;;20.76;100.00;101318.31;5112364;27;20095;-62
2023/06/29 05:48:30;;;;;;;27.50;19.08;;;;;;;20.76;100.00;101321.91;5114001;28;20048;-61
2023/06/29 05:50:58;;;;;;;25.92;17.88;;;;;;;20.77;100.00;101320.75;4738366;28;9999924;-63
2023/06/29 05:53:26;;;;;;;24.73;17.20;;;;;;;20.77;100.00;101315.22;5091454;28;20043;-62
2023/06/29 05:55:53;;;;;;;26.90;18.48;;;;;;;20.79;100.00;101315.69;5094180;27;20104;-65
2023/06/29 05:58:23;;;;;;;26.42;17.98;;;;;;;20.81;100.00;101309.84;5111885;28;20046;-62
2023/06/29 06:00:51;;;;;;;27.40;18.40;;;;;;;20.82;100.00;101317.81;5111083;28;20479;-64
2023/06/29 06:03:20;;;;;;;28.45;18.00;;;;;;;20.81;100.00;101318.97;5093993;28;20052;-61
2023/06/29 06:05:48;;;;;;;24.88;17.48;;;;;;;20.83;100.00;101321.41;5111571;28;20062;-63
2023/06/29 06:08:16;;;;;;;27.38;18.38;;;;;;;20.83;100.00;101318.66;5107402;27;20054;-64
2023/06/29 06:10:44;;;;;;;30.02;18.88;;;;;;;20.84;100.00;101318.31;5093284;28;20365;-61
2023/06/29 06:13:12;;;;;;;27.52;18.48;;;;;;;20.85;100.00;101311.63;5111027;28;20057;-61
2023/06/29 06:15:41;;;;;;;28.33;19.60;;;;;;;20.85;100.00;101316.34;5103054;28;20047;-63
2023/06/29 06:18:08;;;;;;;28.20;17.02;;;;;;;20.87;100.00;101318.78;5116138;27;20043;-62
2023/06/29 06:20:36;;;;;;;29.83;19.90;;;;;;;20.88;100.00;101315.72;5131837;27;20111;-62
2023/06/29 06:23:04;;;;;;;30.25;20.25;;;;;;;20.88;100.00;101315.72;5124785;27;20047;-62
2023/06/29 06:25:32;;;;;;;27.33;19.25;;;;;;;20.89;100.00;101316.53;5109836;28;20047;-64
2023/06/29 06:28:00;;;;;;;31.20;20.73;;;;;;;20.90;100.00;101312.59;5098506;27;20514;-64
2023/06/29 06:30:28;;;;;;;29.88;20.00;;;;;;;20.94;100.00;101319.13;5110056;28;20053;-62
2023/06/29 06:32:56;;;;;;;32.85;20.48;;;;;;;20.94;100.00;101319.13;5111800;28;20047;-63
2023/06/29 06:35:24;;;;;;;29.30;20.38;;;;;;;20.96;100.00;101316.84;5103693;28;20629;-63
2023/06/29 06:37:52;;;;;;;31.77;19.52;;;;;;;20.95;100.00;101315.19;5090843;28;20083;-65
2023/06/29 06:40:21;;;;;;;23.58;17.45;;;;;;;20.97;100.00;101318.47;5103523;28;20492;-65
2023/06/29 06:42:49;;;;;;;27.08;17.88;;;;;;;21.00;100.00;101318.63;5093245;28;20055;-62
2023/06/29 06:45:16;;;;;;;33.28;20.17;;;;;;;21.06;100.00;101313.72;5107846;28;20415;-63
2023/06/29 06:47:44;;;;;;;28.20;20.23;;;;;;;21.05;100.00;101312.13;5110894;28;20055;-63
2023/06/29 06:50:12;;;;;;;62.50;26.65;;;;;;;21.05;100.00;101320.44;5097257;28;20047;-63
2023/06/29 06:52:40;;;;;;;42.00;24.10;;;;;;;21.06;100.00;101313.72;5114468;27;20043;-62
2023/06/29 06:55:08;;;;;;;36.63;21.42;;;;;;;21.09;100.00;101317.81;5114858;27;20044;-64
2023/06/29 06:57:36;;;;;;;30.17;19.10;;;;;;;21.10;100.00;101320.25;5090797;28;20040;-63
2023/06/29 07:00:05;;;;;;;31.63;19.92;;;;;;;21.13;100.00;101316.81;5111025;27;20054;-61
2023/06/29 07:02:33;;;;;;;30.27;18.50;;;;;;;21.14;100.00;101312.94;5131098;27;20035;-64
2023/06/29 07:05:01;;;;;;;31.92;20.98;;;;;;;21.14;99.86;101307.38;5124162;27;20132;-63
2023/06/29 07:07:29;;;;;;;29.83;18.65;;;;;;;21.17;98.94;101317.00;5105194;28;20056;-64
2023/06/29 07:09:56;;;;;;;27.27;19.38;;;;;;;21.21;97.99;101310.47;5110534;28;20055;-63
2023/06/29 07:12:24;;;;;;;28.80;18.55;;;;;;;21.27;96.83;101305.56;5098499;28;20047;-64
2023/06/29 07:14:52;;;;;;;29.50;20.08;;;;;;;21.28;95.20;101312.72;5102413;28;20104;-62
2023/06/29 07:17:20;;;;;;;25.65;18.70;;;;;;;21.27;95.11;101311.91;5104505;28;20087;-62
2023/06/29 07:19:48;;;;;;;32.33;20.45;;;;;;;21.28;94.44;101308.00;5115931;28;20448;-63
2023/06/29 07:22:19;;;;;;;29.63;20.80;;;;;;;21.28;93.83;101308.00;5098582;28;20185;-63
2023/06/29 07:24:50;;;;;;;28.52;18.65;;;;;;;21.30;94.28;101302.13;5107219;28;20044;-64
2023/06/29 07:27:19;;;;;;;29.63;20.20;;;;;;;21.30;94.24;101299.34;5107183;28;20040;-65
2023/06/29 07:29:47;;;;;;;32.72;20.52;;;;;;;21.31;93.84;101300.16;5096208;28;20052;-64
2023/06/29 07:32:15;;;;;;;26.58;18.88;;;;;;;21.34;93.88;101302.31;5105641;27;20050;-62
2023/06/29 07:34:43;;;;;;;28.83;19.35;;;;;;;21.34;94.05;101305.88;5097280;28;20118;-62
2023/06/29 07:37:10;;;;;;;25.88;17.08;;;;;;;21.37;94.32;101298.84;5116561;27;20043;-64
2023/06/29 07:39:38;;;;;;;23.55;17.77;;;;;;;21.40;94.28;101306.53;5117921;28;20053;-62
2023/06/29 07:42:06;;;;;;;29.60;19.20;;;;;;;21.40;93.34;101304.56;5114309;27;20057;-64
2023/06/29 07:44:34;;;;;;;30.88;19.40;;;;;;;21.39;92.80;101308.50;5119626;27;20117;-65
2023/06/29 07:47:02;;;;;;;27.00;19.02;;;;;;;21.40;92.92;101309.31;5119846;27;20127;-63
2023/06/29 07:49:29;;;;;;;26.02;19.20;;;;;;;21.39;92.00;101308.50;5123749;27;20043;-61
2023/06/29 07:51:58;;;;;;;25.42;18.48;;;;;;;21.43;90.88;101303.09;5125791;27;20054;-64
2023/06/29 07:54:27;;;;;;;25.02;17.50;;;;;;;21.46;90.39;101299.69;5104649;27;20048;-63
2023/06/29 07:56:54;;;;;;;28.42;19.48;;;;;;;21.51;89.42;101305.06;5129471;27;20047;-62
2023/06/29 07:59:25;;;;;;;28.85;19.67;;;;;;;21.54;89.41;101298.03;5123088;27;20053;-61
2023/06/29 08:01:53;;;;;;;31.23;20.27;;;;;;;21.55;89.87;101300.47;5129984;27;20035;-64
2023/06/29 08:04:21;;;;;;;26.05;18.17;;;;;;;21.58;89.67;101301.78;5117980;27;20032;-63
2023/06/29 08:06:52;;;;;;;30.50;20.08;;;;;;;21.62;88.62;101297.19;5117654;28;20414;-64
2023/06/29 08:09:20;;;;;;;28.08;19.88;;;;;;;21.66;89.10;101290.63;5118635;27;20038;-63
2023/06/29 08:11:48;;;;;;;29.55;19.65;;;;;;;21.71;89.78;101292.41;5118084;28;20051;-62
2023/06/29 08:14:15;;;;;;;26.65;17.92;;;;;;;21.76;88.64;101289.47;5126727;27;20043;-64
2023/06/29 08:16:43;;;;;;;29.15;18.95;;;;;;;21.81;88.20;101292.03;5124907;27;20046;-62
2023/06/29 08:19:12;;;;;;;28.38;19.25;;;;;;;21.86;87.76;101280.78;5138332;27;20038;-63
2023/06/29 08:21:41;;;;;;;26.23;18.10;;;;;;;21.92;86.74;101281.41;5126680;27;20051;-62
2023/06/29 08:24:09;;;;;;;26.00;17.60;;;;;;;21.94;85.64;101279.13;5119080;27;20048;-63
2023/06/29 08:26:37;;;;;;;31.40;20.27;;;;;;;21.96;84.66;101282.38;5105061;28;20043;-62
2023/06/29 08:29:04;;;;;;;27.25;18.13;;;;;;;22.01;84.85;101282.19;5109595;27;20047;-63
2023/06/29 08:31:32;;;;;;;25.80;18.23;;;;;;;22.03;84.55;101273.50;5125639;27;20046;-62
2023/06/29 08:34:00;;;;;;;32.20;20.48;;;;;;;22.05;81.77;101285.88;5135450;27;20039;-62
2023/06/29 08:36:29;;;;;;;26.10;17.58;;;;;;;22.05;82.12;101291.44;5111880;27;20436;-62
2023/06/29 08:39:01;;;;;;;26.77;18.42;;;;;;;22.08;81.82;101290.78;5126773;27;20044;-63
2023/06/29 08:41:28;;;;;;;26.27;17.92;;;;;;;22.10;81.73;101287.66;5100305;28;20514;-62
2023/06/29 08:43:57;;;;;;;27.88;17.17;;;;;;;22.11;81.63;101290.09;5107285;27;20059;-63
2023/06/29 08:46:26;;;;;;;23.85;17.08;;;;;;;22.15;81.93;101289.44;5117174;27;20119;-62
2023/06/29 08:48:55;;;;;;;29.90;18.92;;;;;;;22.16;81.43;101291.88;5068608;27;20118;-64
2023/06/29 08:51:24;;;;;;;27.42;19.95;;;;;;;22.17;79.96;101287.13;5128741;27;20095;-63
2023/06/29 08:53:53;;;;;;;28.67;19.65;;;;;;;22.16;80.62;101291.06;5118535;28;20071;-63
2023/06/29 08:56:23;;;;;;;29.35;20.02;;;;;;;22.13;80.40;101287.81;5107758;28;20110;-63
2023/06/29 08:58:52;;;;;;;28.35;19.80;;;;;;;22.15;80.74;101283.88;5109400;28;20119;-63
2023/06/29 09:01:20;;;;;;;30.40;20.23;;;;;;;22.15;81.07;101283.88;5079450;28;20056;-61
2023/06/29 09:03:49;;;;;;;29.83;20.23;;;;;;;22.19;81.30;101282.06;5095700;28;20060;-63
2023/06/29 09:06:17;;;;;;;30.35;20.83;;;;;;;22.22;80.55;101284.19;5103916;27;20055;-63
2023/06/29 09:08:45;;;;;;;32.88;20.55;;;;;;;22.24;81.43;101281.91;5103504;27;20052;-65
2023/06/29 09:11:13;;;;;;;27.63;18.95;;;;;;;22.25;81.09;101284.34;5096482;28;20445;-64
2023/06/29 09:13:40;;;;;;;29.00;18.73;;;;;;;22.28;81.03;101278.13;5094727;28;20457;-64
2023/06/29 09:16:09;;;;;;;31.95;19.67;;;;;;;22.31;80.22;101271.09;5130582;27;20057;-64
2023/06/29 09:18:38;;;;;;;27.23;18.35;;;;;;;22.35;79.04;101274.81;5114183;27;20509;-63
2023/06/29 09:21:08;;;;;;;29.05;19.30;;;;;;;22.40;78.30;101279.38;5125028;27;20396;-65
2023/06/29 09:23:43;;;;;;;25.77;18.42;;;;;;;22.42;78.75;101269.53;5130537;27;20073;-62
2023/06/29 09:26:11;;;;;;;31.13;20.27;;;;;;;22.47;77.47;101269.34;5115522;27;20051;-64
2023/06/29 09:28:45;;;;;;;29.75;20.73;;;;;;;22.49;78.39;101271.78;5120231;27;20411;-63
2023/06/29 09:31:13;;;;;;;24.48;16.33;;;;;;;22.50;77.26;101268.66;5114741;27;20052;-64
2023/06/29 09:33:41;;;;;;;29.08;20.27;;;;;;;22.55;78.45;101267.63;5117855;27;20051;-63
2023/06/29 09:36:09;;;;;;;25.45;17.80;;;;;;;22.60;77.72;101273.00;5120355;27;20046;-62
2023/06/29 09:38:37;;;;;;;31.00;20.08;;;;;;;22.66;77.59;101277.19;5108062;27;20043;-62
2023/06/29 09:41:07;;;;;;;33.90;22.83;;;;;;;22.72;77.36;101275.03;5126158;27;20043;-63
2023/06/29 09:43:35;;;;;;;31.65;23.30;;;;;;;22.74;76.98;101276.31;5118777;27;20111;-63
2023/06/29 09:46:08;;;;;;;25.48;17.80;;;;;;;22.76;75.23;101270.41;5121933;27;20059;-61
2023/06/29 09:48:46;;;;;;;29.98;21.63;;;;;;;22.78;75.62;101270.91;5120632;27;20052;-66
2023/06/29 09:51:20;;;;;;;30.98;22.80;;;;;;;22.83;75.12;101275.44;5115821;27;20051;-66
2023/06/29 09:53:49;;;;;;;31.33;21.77;;;;;;;22.81;73.74;101274.97;5108852;28;20104;-65
2023/06/29 09:56:17;;;;;;;29.17;20.27;;;;;;;22.78;73.91;101279.22;5106465;28;20044;-66
2023/06/29 09:58:48;;;;;;;29.75;20.30;;;;;;;22.79;74.35;101268.94;5109192;28;20043;-66
2023/06/29 10:01:20;;;;;;;28.20;19.83;;;;;;;22.77;74.44;101275.63;5115648;27;20143;-66
2023/06/29 10:03:48;;;;;;;29.25;19.67;;;;;;;22.76;74.55;101281.53;5116373;27;20043;-66
2023/06/29 10:06:21;;;;;;;29.20;20.83;;;;;;;22.74;73.58;101279.09;5107522;27;20085;-67
2023/06/29 10:08:53;;;;;;;28.52;20.13;;;;;;;22.72;73.60;101275.03;5116384;27;20040;-67
2023/06/29 10:11:22;;;;;;;31.00;19.42;;;;;;;22.71;74.02;101270.63;5117266;28;20054;-66
2023/06/29 10:13:51;;;;;;;28.95;19.13;;;;;;;22.71;74.37;101267.84;5109709;27;20096;-65
2023/06/29 10:16:21;;;;;;;27.60;19.30;;;;;;;22.72;74.23;101272.25;5114771;28;20048;-66
2023/06/29 10:18:50;;;;;;;25.25;17.27;;;;;;;22.72;74.01;101272.25;5098624;28;20529;-66
2023/06/29 10:21:18;;;;;;;21.95;15.25;;;;;;;22.74;73.91;101272.72;5115023;28;20064;-66
2023/06/29 10:23:47;;;;;;;25.55;17.73;;;;;;;22.77;73.43;101272.03;5124009;28;20178;-64
2023/06/29 10:26:15;;;;;;;24.88;16.90;;;;;;;22.79;74.78;101272.50;5105100;27;20115;-67
2023/06/29 10:28:44;;;;;;;27.52;19.20;;;;;;;22.80;74.16;101276.94;5097471;28;20036;-66
2023/06/29 10:31:20;;;;;;;24.88;17.40;;;;;;;22.83;75.20;101276.25;5111123;28;20058;-67
2023/06/29 10:33:48;;;;;;;;;;;;;;;22.85;76.67;101265.59;5115272;27;20116;-65
2023/06/29 10:36:17;;;;;;;24.30;15.95;;;;;;;22.89;76.99;101269.31;5095187;28;19926;-66
2023/06/29 10:38:45;;;;;;;27.05;17.90;;;;;;;22.94;75.68;101271.88;5112301;28;20043;-68
2023/06/29 10:41:28;;;;;;;25.27;17.35;;;;;;;22.95;74.87;101276.28;5118596;27;20483;-67
2023/06/29 10:43:58;;;;;;;28.45;19.13;;;;;;;22.94;73.88;101271.06;5112354;27;20123;-68
2023/06/29 10:46:45;;;;;;;27.35;19.00;;;;;;;22.94;73.79;101271.06;5115175;28;20060;-67
2023/06/29 10:49:26;;;;;;;26.45;16.95;;;;;;;22.96;75.25;101275.13;5114237;28;20043;-67
2023/06/29 10:52:00;;;;;;;23.20;16.17;;;;;;;22.99;73.85;101272.84;5113308;28;20055;-68
2023/06/29 10:54:28;;;;;;;27.05;18.10;;;;;;;23.01;73.42;101268.56;5105710;28;20046;-67
2023/06/29 10:57:00;;;;;;;29.33;18.58;;;;;;;23.03;74.68;101266.28;5113914;28;20050;-67
2023/06/29 10:59:33;;;;;;;27.83;18.65;;;;;;;23.01;70.19;101271.34;5096121;28;20054;-69
2023/06/29 11:02:03;;;;;;;29.88;19.33;;;;;;;22.98;69.54;101266.47;5112376;28;20046;-66
2023/06/29 11:04:31;;;;;;;32.22;20.20;;;;;;;22.99;71.66;101258.94;5097899;27;20096;-68
2023/06/29 11:07:07;;;;;;;30.25;21.73;;;;;;;22.96;70.47;101264.00;5113659;28;20048;-66
2023/06/29 11:09:35;;;;;;;;;;;;;;;22.89;71.20;101266.53;5095098;28;20411;-67
2023/06/29 11:12:03;;;;;;;31.10;22.23;;;;;;;22.87;71.08;101265.25;5092926;28;19920;-67
2023/06/29 11:14:38;;;;;;;31.67;22.60;;;;;;;22.86;72.20;101258.88;5109550;28;20437;-68